KDAN/DAN METAR and TAF weather

Enter ICAO airport designator
Station Type Date Time Source
KDAN METAR 2020/01/26 18:53 UTC NOAA

KDAN 261853Z AUTO 31007KT 10SM CLR 10/M01 A2993 RMK AO2 SLP132 T01001011


Station Type Date Time Source
KDAN Decoded METAR 2020/01/26 18:53 UTC NOAA

DANVILLE REGIONAL AIRPORT, VA, United States (KDAN) 36-34N 079-20W 175M
Jan 26, 2020 - 01:53 PM EST / 2020.01.26 1853 UTC
Wind: from the NW (310 degrees) at 8 MPH (7 KT):0
Visibility: 10 mile(s):0
Sky conditions: clear
Temperature: 50.0 F (10.0 C)
Dew Point: 30.0 F (-1.1 C)
Relative Humidity: 45%
Pressure (altimeter): 29.93 in. Hg (1013 hPa)
ob: KDAN 261853Z AUTO 31007KT 10SM CLR 10/M01 A2993 RMK AO2 SLP132 T01001011
cycle: 19

Station Type Date Time Source
KDAN TAF 2020/01/26 18:39 UTC NOAA

TAF KDAN 261735Z 2618/2718 28010KT P6SM SKC
FM262300 28004KT P6SM SKC
FM271000 VRB03KT P6SM OVC045
FM271400 24006KT P6SM OVC030

Example: see airport list